sensor_id;sensor_type;location;lat;lon;timestamp;P1;durP1;ratioP1;P2;durP2;ratioP2
57325;SDS011;43161;50.950;18.224;2023-05-01T00:00:22;23.90;;;9.20;;
57325;SDS011;43161;50.950;18.224;2023-05-01T00:02:47;23.30;;;10.40;;
57325;SDS011;43161;50.950;18.224;2023-05-01T00:05:13;28.40;;;13.10;;
57325;SDS011;43161;50.950;18.224;2023-05-01T00:07:38;27.10;;;12.30;;
57325;SDS011;43161;50.950;18.224;2023-05-01T00:10:04;21.70;;;10.50;;
57325;SDS011;43161;50.950;18.224;2023-05-01T00:12:31;22.80;;;9.70;;
57325;SDS011;43161;50.950;18.224;2023-05-01T00:14:57;22.10;;;9.10;;
57325;SDS011;43161;50.950;18.224;2023-05-01T00:17:22;18.90;;;8.20;;
57325;SDS011;43161;50.950;18.224;2023-05-01T00:19:52;24.70;;;9.40;;
57325;SDS011;43161;50.950;18.224;2023-05-01T00:22:18;20.00;;;8.50;;
57325;SDS011;43161;50.950;18.224;2023-05-01T00:24:44;23.40;;;8.60;;
57325;SDS011;43161;50.950;18.224;2023-05-01T00:27:13;22.00;;;8.40;;
57325;SDS011;43161;50.950;18.224;2023-05-01T00:29:39;21.70;;;8.20;;
57325;SDS011;43161;50.950;18.224;2023-05-01T00:32:05;18.20;;;8.40;;
57325;SDS011;43161;50.950;18.224;2023-05-01T00:34:31;20.90;;;8.50;;
57325;SDS011;43161;50.950;18.224;2023-05-01T00:36:56;21.30;;;7.80;;
57325;SDS011;43161;50.950;18.224;2023-05-01T00:39:23;24.30;;;9.60;;
57325;SDS011;43161;50.950;18.224;2023-05-01T00:41:49;21.80;;;9.70;;
57325;SDS011;43161;50.950;18.224;2023-05-01T00:44:14;21.10;;;9.50;;
57325;SDS011;43161;50.950;18.224;2023-05-01T00:46:41;21.30;;;9.30;;
57325;SDS011;43161;50.950;18.224;2023-05-01T00:49:08;19.90;;;8.60;;
57325;SDS011;43161;50.950;18.224;2023-05-01T00:51:33;22.00;;;9.40;;
57325;SDS011;43161;50.950;18.224;2023-05-01T00:54:00;24.20;;;9.00;;
57325;SDS011;43161;50.950;18.224;2023-05-01T00:56:26;22.70;;;9.80;;
57325;SDS011;43161;50.950;18.224;2023-05-01T00:58:52;21.80;;;9.30;;
57325;SDS011;43161;50.950;18.224;2023-05-01T01:01:21;23.70;;;9.40;;
57325;SDS011;43161;50.950;18.224;2023-05-01T01:03:48;20.30;;;8.40;;
57325;SDS011;43161;50.950;18.224;2023-05-01T01:06:20;21.00;;;8.40;;
57325;SDS011;43161;50.950;18.224;2023-05-01T01:08:49;21.70;;;8.80;;
57325;SDS011;43161;50.950;18.224;2023-05-01T01:14:31;23.40;;;8.40;;
57325;SDS011;43161;50.950;18.224;2023-05-01T01:17:10;20.60;;;7.90;;
57325;SDS011;43161;50.950;18.224;2023-05-01T01:19:48;21.00;;;8.20;;
57325;SDS011;43161;50.950;18.224;2023-05-01T01:22:46;19.40;;;7.10;;
57325;SDS011;43161;50.950;18.224;2023-05-01T01:25:23;20.10;;;7.80;;
57325;SDS011;43161;50.950;18.224;2023-05-01T01:41:33;23.60;;;9.40;;
57325;SDS011;43161;50.950;18.224;2023-05-01T01:46:45;23.50;;;9.10;;
57325;SDS011;43161;50.950;18.224;2023-05-01T01:49:14;25.10;;;10.30;;
57325;SDS011;43161;50.950;18.224;2023-05-01T01:51:44;24.80;;;9.40;;
57325;SDS011;43161;50.950;18.224;2023-05-01T01:54:11;22.90;;;8.90;;
57325;SDS011;43161;50.950;18.224;2023-05-01T01:56:39;22.10;;;8.70;;
57325;SDS011;43161;50.950;18.224;2023-05-01T01:59:06;25.40;;;10.00;;
57325;SDS011;43161;50.950;18.224;2023-05-01T02:01:34;27.10;;;10.60;;
57325;SDS011;43161;50.950;18.224;2023-05-01T02:04:01;24.50;;;10.60;;
57325;SDS011;43161;50.950;18.224;2023-05-01T02:06:27;25.90;;;11.40;;
57325;SDS011;43161;50.950;18.224;2023-05-01T02:08:54;26.00;;;11.80;;
57325;SDS011;43161;50.950;18.224;2023-05-01T02:11:21;26.70;;;11.90;;
57325;SDS011;43161;50.950;18.224;2023-05-01T02:13:48;26.00;;;11.60;;
57325;SDS011;43161;50.950;18.224;2023-05-01T02:16:13;29.20;;;12.40;;
57325;SDS011;43161;50.950;18.224;2023-05-01T02:18:41;28.70;;;11.60;;
57325;SDS011;43161;50.950;18.224;2023-05-01T02:21:08;24.30;;;11.10;;
57325;SDS011;43161;50.950;18.224;2023-05-01T02:23:35;26.10;;;10.70;;
57325;SDS011;43161;50.950;18.224;2023-05-01T02:26:02;25.60;;;11.00;;
57325;SDS011;43161;50.950;18.224;2023-05-01T02:28:28;25.00;;;10.50;;
57325;SDS011;43161;50.950;18.224;2023-05-01T02:30:54;26.10;;;9.50;;
57325;SDS011;43161;50.950;18.224;2023-05-01T02:33:21;22.60;;;9.70;;
57325;SDS011;43161;50.950;18.224;2023-05-01T02:35:47;22.00;;;9.00;;
57325;SDS011;43161;50.950;18.224;2023-05-01T02:38:14;24.90;;;10.10;;
57325;SDS011;43161;50.950;18.224;2023-05-01T02:40:41;25.20;;;9.80;;
57325;SDS011;43161;50.950;18.224;2023-05-01T02:43:11;27.10;;;9.70;;
57325;SDS011;43161;50.950;18.224;2023-05-01T02:45:38;20.50;;;8.80;;
57325;SDS011;43161;50.950;18.224;2023-05-01T02:48:05;21.30;;;9.00;;
57325;SDS011;43161;50.950;18.224;2023-05-01T02:50:32;24.80;;;9.80;;
57325;SDS011;43161;50.950;18.224;2023-05-01T02:52:59;23.20;;;9.40;;
57325;SDS011;43161;50.950;18.224;2023-05-01T02:55:25;21.20;;;9.20;;
57325;SDS011;43161;50.950;18.224;2023-05-01T02:57:51;25.00;;;10.30;;
57325;SDS011;43161;50.950;18.224;2023-05-01T03:00:17;22.30;;;9.10;;
57325;SDS011;43161;50.950;18.224;2023-05-01T03:02:43;22.70;;;9.20;;
57325;SDS011;43161;50.950;18.224;2023-05-01T03:05:09;23.90;;;8.80;;
57325;SDS011;43161;50.950;18.224;2023-05-01T03:07:34;20.60;;;8.70;;
57325;SDS011;43161;50.950;18.224;2023-05-01T03:10:06;22.20;;;9.10;;
57325;SDS011;43161;50.950;18.224;2023-05-01T03:12:32;20.30;;;8.80;;
57325;SDS011;43161;50.950;18.224;2023-05-01T03:14:58;23.20;;;9.00;;
57325;SDS011;43161;50.950;18.224;2023-05-01T03:17:24;24.30;;;9.20;;
57325;SDS011;43161;50.950;18.224;2023-05-01T03:19:50;19.90;;;8.70;;
57325;SDS011;43161;50.950;18.224;2023-05-01T03:22:15;22.20;;;9.00;;
57325;SDS011;43161;50.950;18.224;2023-05-01T03:24:42;25.60;;;9.80;;
57325;SDS011;43161;50.950;18.224;2023-05-01T03:27:08;20.90;;;8.70;;
57325;SDS011;43161;50.950;18.224;2023-05-01T03:29:33;23.60;;;9.80;;
57325;SDS011;43161;50.950;18.224;2023-05-01T03:32:02;21.40;;;8.90;;
57325;SDS011;43161;50.950;18.224;2023-05-01T03:34:28;25.10;;;9.60;;
57325;SDS011;43161;50.950;18.224;2023-05-01T03:36:54;26.10;;;9.90;;
57325;SDS011;43161;50.950;18.224;2023-05-01T03:39:20;21.50;;;9.70;;
57325;SDS011;43161;50.950;18.224;2023-05-01T03:41:46;23.80;;;9.90;;
57325;SDS011;43161;50.950;18.224;2023-05-01T03:44:12;22.80;;;8.80;;
57325;SDS011;43161;50.950;18.224;2023-05-01T03:46:37;20.80;;;8.50;;
57325;SDS011;43161;50.950;18.224;2023-05-01T03:49:03;20.60;;;8.40;;
57325;SDS011;43161;50.950;18.224;2023-05-01T03:51:29;19.70;;;8.10;;
57325;SDS011;43161;50.950;18.224;2023-05-01T03:53:54;21.10;;;7.80;;
57325;SDS011;43161;50.950;18.224;2023-05-01T03:56:24;22.80;;;8.30;;
57325;SDS011;43161;50.950;18.224;2023-05-01T03:58:53;57.90;;;22.00;;
57325;SDS011;43161;50.950;18.224;2023-05-01T04:01:18;175.10;;;51.60;;
57325;SDS011;43161;50.950;18.224;2023-05-01T04:03:44;133.50;;;43.60;;
57325;SDS011;43161;50.950;18.224;2023-05-01T04:06:11;120.70;;;42.00;;
57325;SDS011;43161;50.950;18.224;2023-05-01T04:08:37;107.40;;;38.10;;
57325;SDS011;43161;50.950;18.224;2023-05-01T04:11:03;26.40;;;10.20;;
57325;SDS011;43161;50.950;18.224;2023-05-01T04:13:28;22.30;;;8.20;;
57325;SDS011;43161;50.950;18.224;2023-05-01T04:15:55;21.20;;;8.60;;
57325;SDS011;43161;50.950;18.224;2023-05-01T04:18:23;19.90;;;8.30;;
57325;SDS011;43161;50.950;18.224;2023-05-01T04:20:49;19.30;;;7.80;;
57325;SDS011;43161;50.950;18.224;2023-05-01T04:23:16;19.90;;;8.30;;
57325;SDS011;43161;50.950;18.224;2023-05-01T04:25:41;21.00;;;7.90;;
57325;SDS011;43161;50.950;18.224;2023-05-01T04:28:09;20.90;;;7.40;;
57325;SDS011;43161;50.950;18.224;2023-05-01T04:30:36;20.70;;;8.40;;
57325;SDS011;43161;50.950;18.224;2023-05-01T04:33:02;17.70;;;7.60;;
57325;SDS011;43161;50.950;18.224;2023-05-01T04:35:32;19.50;;;7.20;;
57325;SDS011;43161;50.950;18.224;2023-05-01T04:37:59;19.30;;;7.80;;
57325;SDS011;43161;50.950;18.224;2023-05-01T04:40:25;18.40;;;8.00;;
57325;SDS011;43161;50.950;18.224;2023-05-01T04:42:50;18.00;;;7.70;;
57325;SDS011;43161;50.950;18.224;2023-05-01T04:45:16;22.00;;;9.00;;
57325;SDS011;43161;50.950;18.224;2023-05-01T04:47:42;19.60;;;8.20;;
57325;SDS011;43161;50.950;18.224;2023-05-01T04:50:08;20.90;;;8.20;;
57325;SDS011;43161;50.950;18.224;2023-05-01T04:52:35;19.20;;;7.80;;
57325;SDS011;43161;50.950;18.224;2023-05-01T04:55:00;19.30;;;7.70;;
57325;SDS011;43161;50.950;18.224;2023-05-01T04:57:28;19.80;;;7.70;;
57325;SDS011;43161;50.950;18.224;2023-05-01T04:59:53;18.70;;;8.50;;
57325;SDS011;43161;50.950;18.224;2023-05-01T05:02:19;19.10;;;8.00;;
57325;SDS011;43161;50.950;18.224;2023-05-01T05:04:45;19.30;;;8.90;;
57325;SDS011;43161;50.950;18.224;2023-05-01T05:07:11;19.20;;;7.50;;
57325;SDS011;43161;50.950;18.224;2023-05-01T05:09:37;18.30;;;7.20;;
57325;SDS011;43161;50.950;18.224;2023-05-01T05:12:02;22.10;;;7.80;;
57325;SDS011;43161;50.950;18.224;2023-05-01T05:14:29;19.10;;;7.10;;
57325;SDS011;43161;50.950;18.224;2023-05-01T05:16:55;18.40;;;6.70;;
57325;SDS011;43161;50.950;18.224;2023-05-01T05:19:20;25.40;;;9.10;;
57325;SDS011;43161;50.950;18.224;2023-05-01T05:21:47;20.10;;;6.90;;
57325;SDS011;43161;50.950;18.224;2023-05-01T05:24:13;17.40;;;6.90;;
57325;SDS011;43161;50.950;18.224;2023-05-01T05:26:38;15.80;;;5.90;;
57325;SDS011;43161;50.950;18.224;2023-05-01T05:29:04;15.70;;;5.70;;
57325;SDS011;43161;50.950;18.224;2023-05-01T05:31:30;14.90;;;5.80;;
57325;SDS011;43161;50.950;18.224;2023-05-01T05:33:56;16.90;;;5.70;;
57325;SDS011;43161;50.950;18.224;2023-05-01T05:36:21;15.50;;;6.30;;
57325;SDS011;43161;50.950;18.224;2023-05-01T05:38:47;17.30;;;6.00;;
57325;SDS011;43161;50.950;18.224;2023-05-01T05:41:13;15.60;;;5.60;;
57325;SDS011;43161;50.950;18.224;2023-05-01T05:43:39;15.10;;;5.80;;
57325;SDS011;43161;50.950;18.224;2023-05-01T05:46:04;13.90;;;5.10;;
57325;SDS011;43161;50.950;18.224;2023-05-01T05:48:31;16.00;;;5.30;;
57325;SDS011;43161;50.950;18.224;2023-05-01T05:50:56;12.60;;;4.90;;
57325;SDS011;43161;50.950;18.224;2023-05-01T05:53:22;12.10;;;4.80;;
57325;SDS011;43161;50.950;18.224;2023-05-01T05:55:48;13.00;;;4.80;;
57325;SDS011;43161;50.950;18.224;2023-05-01T05:58:14;15.40;;;5.40;;
57325;SDS011;43161;50.950;18.224;2023-05-01T06:00:49;14.30;;;4.80;;
57325;SDS011;43161;50.950;18.224;2023-05-01T06:03:17;16.40;;;4.90;;
57325;SDS011;43161;50.950;18.224;2023-05-01T06:05:43;14.10;;;4.90;;
57325;SDS011;43161;50.950;18.224;2023-05-01T06:08:09;13.60;;;4.90;;
57325;SDS011;43161;50.950;18.224;2023-05-01T06:10:35;15.70;;;5.20;;
57325;SDS011;43161;50.950;18.224;2023-05-01T06:13:04;14.10;;;4.50;;
57325;SDS011;43161;50.950;18.224;2023-05-01T06:15:33;14.70;;;4.70;;
57325;SDS011;43161;50.950;18.224;2023-05-01T06:17:59;15.60;;;4.90;;
57325;SDS011;43161;50.950;18.224;2023-05-01T06:20:25;14.20;;;4.40;;
57325;SDS011;43161;50.950;18.224;2023-05-01T06:22:52;14.40;;;4.30;;
57325;SDS011;43161;50.950;18.224;2023-05-01T06:25:17;13.70;;;4.00;;
57325;SDS011;43161;50.950;18.224;2023-05-01T06:27:43;13.20;;;4.40;;
57325;SDS011;43161;50.950;18.224;2023-05-01T06:30:09;10.90;;;3.80;;
57325;SDS011;43161;50.950;18.224;2023-05-01T06:32:35;12.80;;;3.80;;
57325;SDS011;43161;50.950;18.224;2023-05-01T06:35:02;12.80;;;3.80;;
57325;SDS011;43161;50.950;18.224;2023-05-01T06:37:28;14.30;;;3.80;;
57325;SDS011;43161;50.950;18.224;2023-05-01T06:39:54;10.30;;;3.30;;
57325;SDS011;43161;50.950;18.224;2023-05-01T06:42:20;11.10;;;3.40;;
57325;SDS011;43161;50.950;18.224;2023-05-01T06:44:46;12.30;;;3.50;;
57325;SDS011;43161;50.950;18.224;2023-05-01T06:47:11;10.70;;;3.50;;
57325;SDS011;43161;50.950;18.224;2023-05-01T06:49:37;10.10;;;3.20;;
57325;SDS011;43161;50.950;18.224;2023-05-01T06:52:03;11.50;;;3.20;;
57325;SDS011;43161;50.950;18.224;2023-05-01T06:54:29;12.00;;;3.20;;
57325;SDS011;43161;50.950;18.224;2023-05-01T06:56:55;10.60;;;3.00;;
57325;SDS011;43161;50.950;18.224;2023-05-01T06:59:21;11.70;;;3.30;;
57325;SDS011;43161;50.950;18.224;2023-05-01T07:01:46;13.50;;;3.50;;
57325;SDS011;43161;50.950;18.224;2023-05-01T07:04:12;12.60;;;3.20;;
57325;SDS011;43161;50.950;18.224;2023-05-01T07:06:38;12.20;;;2.80;;
57325;SDS011;43161;50.950;18.224;2023-05-01T07:09:03;10.00;;;2.60;;
57325;SDS011;43161;50.950;18.224;2023-05-01T07:11:29;11.80;;;2.70;;
57325;SDS011;43161;50.950;18.224;2023-05-01T07:13:56;10.60;;;2.90;;
57325;SDS011;43161;50.950;18.224;2023-05-01T07:16:22;11.60;;;3.30;;
57325;SDS011;43161;50.950;18.224;2023-05-01T07:18:47;10.20;;;2.90;;
57325;SDS011;43161;50.950;18.224;2023-05-01T07:21:13;9.60;;;2.50;;
57325;SDS011;43161;50.950;18.224;2023-05-01T07:23:39;10.70;;;2.60;;
57325;SDS011;43161;50.950;18.224;2023-05-01T07:26:05;10.30;;;2.90;;
57325;SDS011;43161;50.950;18.224;2023-05-01T07:28:31;11.60;;;2.80;;
57325;SDS011;43161;50.950;18.224;2023-05-01T07:30:56;12.40;;;3.20;;
57325;SDS011;43161;50.950;18.224;2023-05-01T07:33:22;11.20;;;2.80;;
57325;SDS011;43161;50.950;18.224;2023-05-01T07:35:50;11.60;;;2.40;;
57325;SDS011;43161;50.950;18.224;2023-05-01T07:38:16;10.10;;;2.50;;
57325;SDS011;43161;50.950;18.224;2023-05-01T07:40:42;10.10;;;3.10;;
57325;SDS011;43161;50.950;18.224;2023-05-01T07:43:08;9.60;;;2.40;;
57325;SDS011;43161;50.950;18.224;2023-05-01T07:45:39;11.20;;;2.60;;
57325;SDS011;43161;50.950;18.224;2023-05-01T07:48:06;10.60;;;2.70;;
57325;SDS011;43161;50.950;18.224;2023-05-01T07:50:32;8.80;;;2.50;;
57325;SDS011;43161;50.950;18.224;2023-05-01T07:52:58;7.90;;;2.50;;
57325;SDS011;43161;50.950;18.224;2023-05-01T07:55:23;9.90;;;2.60;;
57325;SDS011;43161;50.950;18.224;2023-05-01T07:57:49;9.80;;;2.20;;
57325;SDS011;43161;50.950;18.224;2023-05-01T08:00:15;10.50;;;2.40;;
57325;SDS011;43161;50.950;18.224;2023-05-01T08:02:42;10.20;;;2.50;;
57325;SDS011;43161;50.950;18.224;2023-05-01T08:05:08;11.20;;;2.40;;
57325;SDS011;43161;50.950;18.224;2023-05-01T08:07:34;9.30;;;1.90;;
57325;SDS011;43161;50.950;18.224;2023-05-01T08:10:00;8.80;;;2.70;;
57325;SDS011;43161;50.950;18.224;2023-05-01T08:12:27;8.00;;;2.00;;
57325;SDS011;43161;50.950;18.224;2023-05-01T08:14:53;8.30;;;2.20;;
57325;SDS011;43161;50.950;18.224;2023-05-01T08:17:19;9.10;;;2.40;;
57325;SDS011;43161;50.950;18.224;2023-05-01T08:19:46;8.70;;;2.20;;
57325;SDS011;43161;50.950;18.224;2023-05-01T08:22:12;8.80;;;2.40;;
57325;SDS011;43161;50.950;18.224;2023-05-01T08:24:38;7.90;;;2.20;;
57325;SDS011;43161;50.950;18.224;2023-05-01T08:27:05;11.50;;;2.60;;
57325;SDS011;43161;50.950;18.224;2023-05-01T08:29:30;12.20;;;3.20;;
57325;SDS011;43161;50.950;18.224;2023-05-01T08:31:57;10.00;;;2.50;;
57325;SDS011;43161;50.950;18.224;2023-05-01T08:34:23;10.70;;;2.80;;
57325;SDS011;43161;50.950;18.224;2023-05-01T08:36:48;10.10;;;2.40;;
57325;SDS011;43161;50.950;18.224;2023-05-01T08:39:14;11.40;;;2.80;;
57325;SDS011;43161;50.950;18.224;2023-05-01T08:41:44;11.00;;;2.60;;
57325;SDS011;43161;50.950;18.224;2023-05-01T08:44:12;10.60;;;3.20;;
57325;SDS011;43161;50.950;18.224;2023-05-01T08:46:46;14.90;;;3.50;;
57325;SDS011;43161;50.950;18.224;2023-05-01T08:49:16;9.30;;;2.30;;
57325;SDS011;43161;50.950;18.224;2023-05-01T08:51:46;8.60;;;2.20;;
57325;SDS011;43161;50.950;18.224;2023-05-01T08:54:14;8.90;;;2.00;;
57325;SDS011;43161;50.950;18.224;2023-05-01T08:56:43;11.50;;;2.30;;
57325;SDS011;43161;50.950;18.224;2023-05-01T08:59:11;8.00;;;2.10;;
57325;SDS011;43161;50.950;18.224;2023-05-01T09:01:38;10.60;;;2.70;;
57325;SDS011;43161;50.950;18.224;2023-05-01T09:04:06;9.70;;;2.50;;
57325;SDS011;43161;50.950;18.224;2023-05-01T09:06:34;8.00;;;2.10;;
57325;SDS011;43161;50.950;18.224;2023-05-01T09:09:00;11.70;;;2.40;;
57325;SDS011;43161;50.950;18.224;2023-05-01T09:11:27;8.50;;;2.30;;
57325;SDS011;43161;50.950;18.224;2023-05-01T09:13:53;9.70;;;2.20;;
57325;SDS011;43161;50.950;18.224;2023-05-01T09:16:19;8.30;;;2.60;;
57325;SDS011;43161;50.950;18.224;2023-05-01T09:18:45;10.30;;;2.40;;
57325;SDS011;43161;50.950;18.224;2023-05-01T09:21:12;7.50;;;2.10;;
57325;SDS011;43161;50.950;18.224;2023-05-01T09:23:37;10.60;;;2.50;;
57325;SDS011;43161;50.950;18.224;2023-05-01T09:26:05;9.60;;;2.80;;
57325;SDS011;43161;50.950;18.224;2023-05-01T09:28:38;8.90;;;2.20;;
57325;SDS011;43161;50.950;18.224;2023-05-01T09:33:52;9.40;;;2.10;;
57325;SDS011;43161;50.950;18.224;2023-05-01T09:36:18;8.60;;;2.30;;
57325;SDS011;43161;50.950;18.224;2023-05-01T09:38:44;9.80;;;2.40;;
57325;SDS011;43161;50.950;18.224;2023-05-01T09:41:10;8.80;;;2.40;;
57325;SDS011;43161;50.950;18.224;2023-05-01T09:43:36;9.70;;;2.40;;
57325;SDS011;43161;50.950;18.224;2023-05-01T09:46:06;9.80;;;2.10;;
57325;SDS011;43161;50.950;18.224;2023-05-01T09:48:35;10.80;;;1.80;;
57325;SDS011;43161;50.950;18.224;2023-05-01T09:53:51;10.80;;;2.40;;
57325;SDS011;43161;50.950;18.224;2023-05-01T09:56:21;8.20;;;2.00;;
57325;SDS011;43161;50.950;18.224;2023-05-01T09:58:52;9.30;;;2.50;;
57325;SDS011;43161;50.950;18.224;2023-05-01T10:01:20;7.70;;;2.10;;
57325;SDS011;43161;50.950;18.224;2023-05-01T10:04:02;10.50;;;2.40;;
57325;SDS011;43161;50.950;18.224;2023-05-01T10:06:28;9.30;;;2.60;;
57325;SDS011;43161;50.950;18.224;2023-05-01T10:08:53;11.00;;;2.70;;
57325;SDS011;43161;50.950;18.224;2023-05-01T10:11:19;10.20;;;3.00;;
57325;SDS011;43161;50.950;18.224;2023-05-01T10:13:52;8.70;;;2.30;;
57325;SDS011;43161;50.950;18.224;2023-05-01T10:18:58;9.00;;;2.50;;
57325;SDS011;43161;50.950;18.224;2023-05-01T10:21:24;8.60;;;2.20;;
57325;SDS011;43161;50.950;18.224;2023-05-01T10:23:50;11.10;;;2.50;;
57325;SDS011;43161;50.950;18.224;2023-05-01T10:26:17;14.00;;;3.00;;
57325;SDS011;43161;50.950;18.224;2023-05-01T10:28:44;9.60;;;2.40;;
57325;SDS011;43161;50.950;18.224;2023-05-01T10:31:11;9.20;;;2.40;;
57325;SDS011;43161;50.950;18.224;2023-05-01T10:33:38;11.50;;;2.60;;
57325;SDS011;43161;50.950;18.224;2023-05-01T10:36:05;9.20;;;2.50;;
57325;SDS011;43161;50.950;18.224;2023-05-01T10:38:35;10.70;;;2.70;;
57325;SDS011;43161;50.950;18.224;2023-05-01T10:41:02;8.10;;;2.00;;
57325;SDS011;43161;50.950;18.224;2023-05-01T10:43:30;8.60;;;2.10;;
57325;SDS011;43161;50.950;18.224;2023-05-01T10:51:32;8.50;;;2.00;;
57325;SDS011;43161;50.950;18.224;2023-05-01T10:56:40;9.90;;;2.40;;
57325;SDS011;43161;50.950;18.224;2023-05-01T10:59:08;9.60;;;2.80;;
57325;SDS011;43161;50.950;18.224;2023-05-01T11:01:37;12.10;;;2.60;;
57325;SDS011;43161;50.950;18.224;2023-05-01T11:09:39;8.20;;;2.20;;
57325;SDS011;43161;50.950;18.224;2023-05-01T11:12:06;12.40;;;3.10;;
57325;SDS011;43161;50.950;18.224;2023-05-01T11:20:06;10.90;;;2.70;;
57325;SDS011;43161;50.950;18.224;2023-05-01T11:22:39;7.70;;;2.00;;
57325;SDS011;43161;50.950;18.224;2023-05-01T11:25:43;10.10;;;2.20;;
57325;SDS011;43161;50.950;18.224;2023-05-01T11:28:02;8.20;;;2.20;;
57325;SDS011;43161;50.950;18.224;2023-05-01T11:30:39;10.00;;;2.10;;
57325;SDS011;43161;50.950;18.224;2023-05-01T11:33:05;10.00;;;2.80;;
57325;SDS011;43161;50.950;18.224;2023-05-01T11:35:32;8.80;;;2.50;;
57325;SDS011;43161;50.950;18.224;2023-05-01T11:37:58;9.50;;;2.20;;
57325;SDS011;43161;50.950;18.224;2023-05-01T11:40:27;9.90;;;2.00;;
57325;SDS011;43161;50.950;18.224;2023-05-01T11:43:01;12.60;;;2.20;;
57325;SDS011;43161;50.950;18.224;2023-05-01T11:45:28;9.20;;;2.20;;
57325;SDS011;43161;50.950;18.224;2023-05-01T11:47:54;9.60;;;2.30;;
57325;SDS011;43161;50.950;18.224;2023-05-01T11:50:20;10.20;;;2.60;;
57325;SDS011;43161;50.950;18.224;2023-05-01T11:52:47;9.20;;;2.50;;
57325;SDS011;43161;50.950;18.224;2023-05-01T11:55:14;7.20;;;2.00;;
57325;SDS011;43161;50.950;18.224;2023-05-01T11:57:46;9.90;;;2.40;;
57325;SDS011;43161;50.950;18.224;2023-05-01T12:00:13;9.30;;;2.00;;
57325;SDS011;43161;50.950;18.224;2023-05-01T12:02:45;10.20;;;2.10;;
57325;SDS011;43161;50.950;18.224;2023-05-01T12:05:23;11.20;;;2.30;;
57325;SDS011;43161;50.950;18.224;2023-05-01T12:07:50;8.20;;;2.00;;
57325;SDS011;43161;50.950;18.224;2023-05-01T12:10:15;7.80;;;2.10;;
57325;SDS011;43161;50.950;18.224;2023-05-01T12:12:42;8.40;;;2.10;;
57325;SDS011;43161;50.950;18.224;2023-05-01T12:15:08;7.40;;;2.10;;
57325;SDS011;43161;50.950;18.224;2023-05-01T12:17:35;11.10;;;2.60;;
57325;SDS011;43161;50.950;18.224;2023-05-01T12:20:01;7.20;;;1.80;;
57325;SDS011;43161;50.950;18.224;2023-05-01T12:22:28;7.70;;;1.70;;
57325;SDS011;43161;50.950;18.224;2023-05-01T12:24:54;9.00;;;1.80;;
57325;SDS011;43161;50.950;18.224;2023-05-01T12:27:20;7.50;;;1.70;;
57325;SDS011;43161;50.950;18.224;2023-05-01T12:29:47;7.40;;;1.70;;
57325;SDS011;43161;50.950;18.224;2023-05-01T12:32:13;7.30;;;1.80;;
57325;SDS011;43161;50.950;18.224;2023-05-01T12:34:39;7.30;;;1.70;;
57325;SDS011;43161;50.950;18.224;2023-05-01T12:37:06;7.50;;;1.70;;
57325;SDS011;43161;50.950;18.224;2023-05-01T12:39:38;9.60;;;2.00;;
57325;SDS011;43161;50.950;18.224;2023-05-01T12:42:10;7.20;;;1.60;;
57325;SDS011;43161;50.950;18.224;2023-05-01T12:44:38;6.10;;;1.50;;
57325;SDS011;43161;50.950;18.224;2023-05-01T12:47:07;7.00;;;1.60;;
57325;SDS011;43161;50.950;18.224;2023-05-01T12:49:34;8.30;;;1.70;;
57325;SDS011;43161;50.950;18.224;2023-05-01T12:52:02;9.00;;;1.60;;
57325;SDS011;43161;50.950;18.224;2023-05-01T12:54:32;8.00;;;2.10;;
57325;SDS011;43161;50.950;18.224;2023-05-01T12:57:08;7.70;;;2.00;;
57325;SDS011;43161;50.950;18.224;2023-05-01T12:59:36;5.40;;;1.20;;
57325;SDS011;43161;50.950;18.224;2023-05-01T13:02:04;6.70;;;1.30;;
57325;SDS011;43161;50.950;18.224;2023-05-01T13:04:30;5.90;;;1.30;;
57325;SDS011;43161;50.950;18.224;2023-05-01T13:06:56;5.80;;;1.30;;
57325;SDS011;43161;50.950;18.224;2023-05-01T13:09:26;6.90;;;1.40;;
57325;SDS011;43161;50.950;18.224;2023-05-01T13:14:39;8.30;;;1.50;;
57325;SDS011;43161;50.950;18.224;2023-05-01T13:17:06;6.00;;;1.30;;
57325;SDS011;43161;50.950;18.224;2023-05-01T13:19:32;6.50;;;1.30;;
57325;SDS011;43161;50.950;18.224;2023-05-01T13:21:58;5.10;;;1.30;;
57325;SDS011;43161;50.950;18.224;2023-05-01T13:24:34;11.30;;;2.50;;
57325;SDS011;43161;50.950;18.224;2023-05-01T13:27:01;8.40;;;1.60;;
57325;SDS011;43161;50.950;18.224;2023-05-01T13:29:28;9.50;;;3.00;;
57325;SDS011;43161;50.950;18.224;2023-05-01T13:31:54;7.50;;;2.40;;
57325;SDS011;43161;50.950;18.224;2023-05-01T13:34:22;15.70;;;6.80;;
57325;SDS011;43161;50.950;18.224;2023-05-01T13:36:53;9.90;;;2.70;;
57325;SDS011;43161;50.950;18.224;2023-05-01T13:39:19;24.10;;;10.20;;
57325;SDS011;43161;50.950;18.224;2023-05-01T13:41:45;10.00;;;3.00;;
57325;SDS011;43161;50.950;18.224;2023-05-01T13:44:11;10.50;;;3.40;;
57325;SDS011;43161;50.950;18.224;2023-05-01T13:46:37;6.10;;;1.70;;
57325;SDS011;43161;50.950;18.224;2023-05-01T13:49:04;8.30;;;1.70;;
57325;SDS011;43161;50.950;18.224;2023-05-01T13:51:32;10.80;;;3.50;;
57325;SDS011;43161;50.950;18.224;2023-05-01T13:54:01;9.20;;;3.20;;
57325;SDS011;43161;50.950;18.224;2023-05-01T13:56:27;14.30;;;6.00;;
57325;SDS011;43161;50.950;18.224;2023-05-01T13:58:53;28.40;;;14.80;;
57325;SDS011;43161;50.950;18.224;2023-05-01T14:01:19;11.80;;;4.00;;
57325;SDS011;43161;50.950;18.224;2023-05-01T14:03:46;19.30;;;10.60;;
57325;SDS011;43161;50.950;18.224;2023-05-01T14:06:17;9.10;;;3.10;;
57325;SDS011;43161;50.950;18.224;2023-05-01T14:08:45;9.50;;;2.50;;
57325;SDS011;43161;50.950;18.224;2023-05-01T14:11:12;12.30;;;4.90;;
57325;SDS011;43161;50.950;18.224;2023-05-01T14:13:42;22.40;;;11.20;;
57325;SDS011;43161;50.950;18.224;2023-05-01T14:16:09;8.90;;;2.50;;
57325;SDS011;43161;50.950;18.224;2023-05-01T14:19:02;13.50;;;5.10;;
57325;SDS011;43161;50.950;18.224;2023-05-01T14:21:30;10.50;;;2.70;;
57325;SDS011;43161;50.950;18.224;2023-05-01T14:23:56;9.50;;;2.60;;
57325;SDS011;43161;50.950;18.224;2023-05-01T14:26:23;11.50;;;4.20;;
57325;SDS011;43161;50.950;18.224;2023-05-01T14:28:49;14.50;;;4.90;;
57325;SDS011;43161;50.950;18.224;2023-05-01T14:33:55;14.60;;;6.70;;
57325;SDS011;43161;50.950;18.224;2023-05-01T14:36:22;8.30;;;2.20;;
57325;SDS011;43161;50.950;18.224;2023-05-01T14:38:47;10.30;;;4.40;;
57325;SDS011;43161;50.950;18.224;2023-05-01T14:41:17;12.90;;;5.20;;
57325;SDS011;43161;50.950;18.224;2023-05-01T14:43:44;9.50;;;2.60;;
57325;SDS011;43161;50.950;18.224;2023-05-01T14:46:11;9.30;;;2.90;;
57325;SDS011;43161;50.950;18.224;2023-05-01T14:48:39;12.10;;;3.10;;
57325;SDS011;43161;50.950;18.224;2023-05-01T14:51:09;8.10;;;2.50;;
57325;SDS011;43161;50.950;18.224;2023-05-01T14:53:38;7.50;;;2.10;;
57325;SDS011;43161;50.950;18.224;2023-05-01T14:56:06;8.60;;;2.40;;
57325;SDS011;43161;50.950;18.224;2023-05-01T14:58:32;6.00;;;1.50;;
57325;SDS011;43161;50.950;18.224;2023-05-01T15:00:57;8.60;;;1.80;;
57325;SDS011;43161;50.950;18.224;2023-05-01T15:03:23;7.90;;;1.90;;
57325;SDS011;43161;50.950;18.224;2023-05-01T15:05:49;7.70;;;2.10;;
57325;SDS011;43161;50.950;18.224;2023-05-01T15:08:14;7.60;;;2.10;;
57325;SDS011;43161;50.950;18.224;2023-05-01T15:10:41;8.40;;;2.20;;
57325;SDS011;43161;50.950;18.224;2023-05-01T15:13:07;8.30;;;2.70;;
57325;SDS011;43161;50.950;18.224;2023-05-01T15:15:33;7.20;;;2.50;;